Time;durP1;ratioP1;P1;durP2;ratioP2;P2;SDS_P1;SDS_P2;PMS_P1;PMS_P2;Temp;Humidity;BMP_temperature;BMP_pressure;BME280_temperature;BME280_humidity;BME280_pressure;Samples;Min_cycle;Max_cycle;Signal;HPM_P1;HPM_P2
2022/04/14 00:02:03;;;;;;;16.67;11.90;;;16.90;71.60;;;;;;4984243;28;20455;-45
2022/04/14 00:04:35;;;;;;;15.97;13.03;;;16.90;71.60;;;;;;4982098;28;21002;-45
2022/04/14 00:07:02;;;;;;;18.80;13.47;;;16.90;71.60;;;;;;4980601;28;20496;-45
2022/04/14 00:09:29;;;;;;;15.33;13.73;;;16.90;71.80;;;;;;4978151;28;20469;-45
2022/04/14 00:11:56;;;;;;;15.23;12.70;;;16.90;71.60;;;;;;4983843;28;20495;-45
2022/04/14 00:14:23;;;;;;;16.40;12.20;;;17.00;71.50;;;;;;4980434;28;20463;-45
2022/04/14 00:16:50;;;;;;;18.30;12.63;;;16.90;71.50;;;;;;4984173;28;20461;-44
2022/04/14 00:19:17;;;;;;;17.33;11.30;;;16.90;71.40;;;;;;4979872;28;20568;-45
2022/04/14 00:21:44;;;;;;;21.57;13.07;;;16.90;71.40;;;;;;4982090;28;20463;-45
2022/04/14 00:24:11;;;;;;;17.17;11.70;;;16.90;71.40;;;;;;4978966;28;20921;-45
2022/04/14 00:26:37;;;;;;;17.07;12.67;;;16.90;71.40;;;;;;4980983;28;20452;-45
2022/04/14 00:29:04;;;;;;;14.90;12.07;;;16.90;71.40;;;;;;4986709;28;20448;-45
2022/04/14 00:31:31;;;;;;;13.23;11.40;;;16.90;71.40;;;;;;4981816;28;20524;-45
2022/04/14 00:33:58;;;;;;;17.93;11.17;;;16.90;71.40;;;;;;4980186;28;20734;-45
2022/04/14 00:36:25;;;;;;;17.00;10.57;;;16.90;71.40;;;;;;4979932;28;20465;-45
2022/04/14 00:38:51;;;;;;;15.30;12.13;;;16.90;71.50;;;;;;4978388;28;20500;-44
2022/04/14 00:41:18;;;;;;;15.83;10.10;;;16.80;71.60;;;;;;4978472;28;20447;-45
2022/04/14 00:43:52;;;;;;;12.67;11.37;;;16.80;71.80;;;;;;4981692;28;20891;-45
2022/04/14 00:46:20;;;;;;;11.83;10.60;;;16.70;72.10;;;;;;4981319;28;20556;-45
2022/04/14 00:48:49;;;;;;;17.17;11.57;;;16.70;72.00;;;;;;4961522;28;20456;-46
2022/04/14 00:51:15;;;;;;;13.23;11.17;;;16.70;72.00;;;;;;4978658;28;20983;-45
2022/04/14 00:53:42;;;;;;;12.07;10.50;;;16.60;72.10;;;;;;4980949;28;20820;-45
2022/04/14 00:56:09;;;;;;;11.50;10.00;;;16.60;72.10;;;;;;4981644;28;20456;-45
2022/04/14 00:58:36;;;;;;;12.47;10.90;;;16.60;72.30;;;;;;4981296;28;20604;-45
2022/04/14 01:01:07;;;;;;;14.00;10.73;;;16.60;72.50;;;;;;4978766;28;20449;-45
2022/04/14 01:03:35;;;;;;;12.20;10.90;;;16.60;72.30;;;;;;4980419;28;20959;-45
2022/04/14 01:06:03;;;;;;;12.17;10.53;;;16.50;72.40;;;;;;4981154;28;20841;-45
2022/04/14 01:08:32;;;;;;;11.80;10.60;;;16.50;72.40;;;;;;4981909;28;21052;-45
2022/04/14 01:10:59;;;;;;;11.90;9.80;;;16.50;72.50;;;;;;4983018;28;20467;-44
2022/04/14 01:13:26;;;;;;;11.37;10.13;;;16.40;72.50;;;;;;4985697;28;20850;-44
2022/04/14 01:15:59;;;;;;;14.37;10.00;;;16.40;72.60;;;;;;4979058;28;20468;-45
2022/04/14 01:18:27;;;;;;;13.17;10.70;;;16.40;72.70;;;;;;4980259;28;20844;-44
2022/04/14 01:20:54;;;;;;;16.87;10.43;;;16.30;72.80;;;;;;4981728;28;20460;-45
2022/04/14 01:23:37;;;;;;;17.73;9.60;;;16.30;72.90;;;;;;4982062;28;20464;-45
2022/04/14 01:26:04;;;;;;;10.83;9.83;;;16.30;73.00;;;;;;4980988;28;20459;-44
2022/04/14 01:28:31;;;;;;;13.73;9.33;;;16.30;73.10;;;;;;4961959;28;20828;-44
2022/04/14 01:30:58;;;;;;;13.87;9.70;;;16.20;73.00;;;;;;4983899;28;20503;-44
2022/04/14 01:33:24;;;;;;;14.10;9.83;;;16.20;73.10;;;;;;4979701;28;20482;-44
2022/04/14 01:35:51;;;;;;;11.30;9.93;;;16.20;73.10;;;;;;4982506;28;20466;-45
2022/04/14 01:38:18;;;;;;;12.53;9.47;;;16.20;73.20;;;;;;4983535;28;20497;-44
2022/04/14 01:40:44;;;;;;;11.97;9.70;;;16.20;73.20;;;;;;4978082;28;20472;-44
2022/04/14 01:43:11;;;;;;;13.97;9.60;;;16.20;73.20;;;;;;4982892;28;20961;-44
2022/04/14 01:45:38;;;;;;;14.10;9.97;;;16.20;73.20;;;;;;4979632;28;20651;-44
2022/04/14 01:48:05;;;;;;;13.93;10.43;;;16.10;73.20;;;;;;4962924;28;20887;-45
2022/04/14 01:50:32;;;;;;;12.90;9.53;;;16.10;73.40;;;;;;4978866;28;20473;-45
2022/04/14 01:52:58;;;;;;;11.17;10.17;;;16.10;73.40;;;;;;4980884;28;20475;-45
2022/04/14 01:55:26;;;;;;;13.13;9.53;;;16.10;73.40;;;;;;4980774;28;20474;-44
2022/04/14 01:57:52;;;;;;;14.13;9.03;;;16.10;73.30;;;;;;4979082;28;20872;-44
2022/04/14 02:00:19;;;;;;;11.83;10.20;;;16.10;73.30;;;;;;4979114;28;20456;-45
2022/04/14 02:02:46;;;;;;;11.40;10.00;;;16.10;73.40;;;;;;4980498;28;20475;-44
2022/04/14 02:05:13;;;;;;;12.10;10.07;;;16.10;73.20;;;;;;4978849;28;20833;-44
2022/04/14 02:07:39;;;;;;;12.50;10.67;;;16.10;73.30;;;;;;4982472;28;20538;-47
2022/04/14 02:10:06;;;;;;;12.73;9.97;;;16.10;73.50;;;;;;4994361;28;20461;-47
2022/04/14 02:12:34;;;;;;;11.43;9.80;;;16.10;73.30;;;;;;4992451;28;20975;-47
2022/04/14 02:15:01;;;;;;;14.80;9.83;;;16.10;73.40;;;;;;4994698;28;20467;-47
2022/04/14 02:17:28;;;;;;;14.27;10.27;;;16.10;73.30;;;;;;4976542;28;20465;-48
2022/04/14 02:19:54;;;;;;;13.27;10.27;;;16.00;73.40;;;;;;4997292;28;20522;-48
2022/04/14 02:22:21;;;;;;;12.17;9.80;;;16.00;73.40;;;;;;4984490;28;20462;-48
2022/04/14 02:24:48;;;;;;;16.10;9.80;;;16.00;73.40;;;;;;4995018;28;20474;-47
2022/04/14 02:27:15;;;;;;;10.87;9.40;;;16.00;73.50;;;;;;4993024;28;20463;-48
2022/04/14 02:29:43;;;;;;;16.40;9.90;;;16.00;73.50;;;;;;4992534;28;20496;-48
2022/04/14 02:32:10;;;;;;;12.13;9.83;;;15.90;73.60;;;;;;4989907;28;20499;-48
2022/04/14 02:34:36;;;;;;;12.00;10.07;;;15.90;73.60;;;;;;4994561;28;20478;-48
2022/04/14 02:37:04;;;;;;;13.27;10.63;;;15.90;73.70;;;;;;4995279;28;20479;-48
2022/04/14 02:39:31;;;;;;;13.27;9.37;;;15.80;73.80;;;;;;4991562;28;20584;-48
2022/04/14 02:41:57;;;;;;;12.80;10.50;;;15.80;73.80;;;;;;4994603;28;20458;-48
2022/04/14 02:44:24;;;;;;;12.33;9.40;;;15.80;73.80;;;;;;4980212;28;20455;-48
2022/04/14 02:46:51;;;;;;;13.67;9.80;;;15.70;73.90;;;;;;4992347;28;20468;-48
2022/04/14 02:49:17;;;;;;;11.60;9.70;;;15.70;74.10;;;;;;4991177;28;20469;-48
2022/04/14 02:51:44;;;;;;;12.73;9.73;;;15.60;74.30;;;;;;4992337;28;20954;-48
2022/04/14 02:54:11;;;;;;;11.97;10.00;;;15.60;74.40;;;;;;4996672;28;20493;-48
2022/04/14 02:56:38;;;;;;;16.30;11.07;;;15.50;74.50;;;;;;4992035;28;20478;-48
2022/04/14 02:59:04;;;;;;;19.33;10.47;;;15.50;74.70;;;;;;4994860;28;20499;-48
2022/04/14 03:01:31;;;;;;;12.47;9.90;;;15.50;74.80;;;;;;4995230;28;20554;-48
2022/04/14 03:03:58;;;;;;;16.33;11.07;;;15.40;74.90;;;;;;4990662;28;20471;-48
2022/04/14 03:06:25;;;;;;;11.37;9.77;;;15.40;75.00;;;;;;4991133;28;20471;-48
2022/04/14 03:08:51;;;;;;;11.77;10.57;;;15.40;75.10;;;;;;4990283;28;20500;-47
2022/04/14 03:11:18;;;;;;;12.70;10.00;;;15.40;75.20;;;;;;4988927;28;20472;-47
2022/04/14 03:13:45;;;;;;;14.30;10.40;;;15.40;75.30;;;;;;4977627;28;20470;-47
2022/04/14 03:16:13;;;;;;;15.30;11.37;;;15.30;75.40;;;;;;4994218;28;20890;-47
2022/04/14 03:18:40;;;;;;;14.17;11.13;;;15.30;75.70;;;;;;4988490;28;20491;-47
2022/04/14 03:21:07;;;;;;;16.07;12.03;;;15.40;75.80;;;;;;4994158;28;20456;-47
2022/04/14 03:23:33;;;;;;;16.90;12.83;;;15.40;75.70;;;;;;5000159;28;20471;-47
2022/04/14 03:26:02;;;;;;;16.03;12.23;;;15.40;75.90;;;;;;4996089;28;20468;-47
2022/04/14 03:28:29;;;;;;;17.40;13.03;;;15.40;75.80;;;;;;4994217;28;20527;-47
2022/04/14 03:30:57;;;;;;;21.10;14.23;;;15.40;75.80;;;;;;4998408;28;20549;-47
2022/04/14 03:33:24;;;;;;;17.20;13.53;;;15.40;75.70;;;;;;4980100;28;20511;-48
2022/04/14 03:35:51;;;;;;;18.47;15.00;;;15.50;75.60;;;;;;4998453;28;20468;-48
2022/04/14 03:38:18;;;;;;;18.17;14.90;;;15.40;75.50;;;;;;4995263;28;20466;-48
2022/04/14 03:41:04;;;;;;;19.40;13.90;;;15.40;75.50;;;;;;4996384;28;20451;-48
2022/04/14 03:43:35;;;;;;;19.80;13.30;;;15.50;75.50;;;;;;4995997;28;20494;-48
2022/04/14 03:46:03;;;;;;;17.33;12.83;;;15.50;75.30;;;;;;5000612;28;20892;-47
2022/04/14 03:48:30;;;;;;;19.17;14.50;;;15.50;75.30;;;;;;4993616;28;20558;-47
2022/04/14 03:50:57;;;;;;;16.80;13.07;;;15.50;75.30;;;;;;4994928;28;20505;-47
2022/04/14 03:53:24;;;;;;;22.13;14.13;;;15.50;75.30;;;;;;4994555;28;20555;-48
2022/04/14 03:55:51;;;;;;;20.20;14.73;;;15.50;75.20;;;;;;4995392;28;20499;-47
2022/04/14 03:58:18;;;;;;;16.17;13.70;;;15.50;75.20;;;;;;4997231;28;20463;-47
2022/04/14 04:00:45;;;;;;;18.70;14.90;;;15.60;75.20;;;;;;4992930;28;20463;-47
2022/04/14 04:03:12;;;;;;;19.63;13.57;;;15.50;75.20;;;;;;4994585;28;20457;-47
2022/04/14 04:05:39;;;;;;;16.50;13.40;;;15.50;75.20;;;;;;4996795;28;20931;-47
2022/04/14 04:08:06;;;;;;;19.83;14.40;;;15.50;75.30;;;;;;4990266;28;20472;-47
2022/04/14 04:10:33;;;;;;;20.73;15.43;;;15.40;75.40;;;;;;4996485;28;20473;-48
2022/04/14 04:13:00;;;;;;;17.80;14.70;;;15.50;75.50;;;;;;4999562;28;20458;-47
2022/04/14 04:15:27;;;;;;;21.00;15.60;;;15.50;75.60;;;;;;4996092;28;20474;-47
2022/04/14 04:17:54;;;;;;;20.77;15.67;;;15.50;75.50;;;;;;4977174;28;20470;-47
2022/04/14 04:20:21;;;;;;;19.30;16.33;;;15.50;75.50;;;;;;4992641;28;20518;-47
2022/04/14 04:22:47;;;;;;;20.97;16.97;;;15.50;75.50;;;;;;4994592;28;20680;-47
2022/04/14 04:25:14;;;;;;;22.00;16.13;;;15.50;75.30;;;;;;4994694;28;20761;-47
2022/04/14 04:27:41;;;;;;;22.23;17.03;;;15.50;75.30;;;;;;4993755;28;20550;-47
2022/04/14 04:30:08;;;;;;;19.93;15.70;;;15.50;75.40;;;;;;4994469;28;20462;-47
2022/04/14 04:32:35;;;;;;;18.53;15.60;;;15.50;75.40;;;;;;4988123;28;20486;-47
2022/04/14 04:35:04;;;;;;;23.13;16.77;;;15.50;75.40;;;;;;4991900;28;20467;-47
2022/04/14 04:37:30;;;;;;;20.57;16.57;;;15.40;75.50;;;;;;4990943;28;20549;-47
2022/04/14 04:39:58;;;;;;;23.47;17.43;;;15.40;75.50;;;;;;4999870;28;20503;-47
2022/04/14 04:42:25;;;;;;;25.60;19.17;;;15.40;75.60;;;;;;4993831;28;20529;-48
2022/04/14 04:44:52;;;;;;;23.80;17.17;;;15.40;75.70;;;;;;4992932;28;20463;-48
2022/04/14 04:47:22;;;;;;;27.50;18.47;;;15.40;75.70;;;;;;4995644;28;20558;-48
2022/04/14 04:49:52;;;;;;;22.47;17.20;;;15.40;75.70;;;;;;4996051;28;20566;-48
2022/04/14 04:52:19;;;;;;;22.40;17.00;;;15.40;75.80;;;;;;4999394;28;20467;-47
2022/04/14 04:54:45;;;;;;;23.90;18.00;;;15.40;75.90;;;;;;4997836;28;20466;-47
2022/04/14 04:57:12;;;;;;;24.33;16.47;;;15.30;75.90;;;;;;4997196;28;20462;-47
2022/04/14 04:59:39;;;;;;;26.57;18.00;;;15.30;76.10;;;;;;4995373;28;20524;-48
2022/04/14 05:02:05;;;;;;;24.40;18.60;;;15.30;76.10;;;;;;5000768;28;20456;-48
2022/04/14 05:04:32;;;;;;;28.03;18.60;;;15.30;76.10;;;;;;4997751;28;20467;-48
2022/04/14 05:06:59;;;;;;;27.23;18.13;;;15.30;76.00;;;;;;4988467;28;20991;-48
2022/04/14 05:09:26;;;;;;;23.80;19.23;;;15.40;76.10;;;;;;4992249;28;20541;-47
2022/04/14 05:11:52;;;;;;;29.53;19.10;;;15.40;75.90;;;;;;4994755;28;20468;-46
2022/04/14 05:14:19;;;;;;;26.33;18.83;;;15.40;76.00;;;;;;4996588;28;20499;-47
2022/04/14 05:16:46;;;;;;;26.47;19.27;;;15.40;76.10;;;;;;4993768;28;20478;-47
2022/04/14 05:19:13;;;;;;;23.27;17.80;;;15.40;76.20;;;;;;4996023;28;20488;-47
2022/04/14 05:21:40;;;;;;;25.80;19.30;;;15.40;76.40;;;;;;4994356;28;20459;-47
2022/04/14 05:24:06;;;;;;;23.23;18.73;;;15.40;76.40;;;;;;4992952;28;20486;-46
2022/04/14 05:26:33;;;;;;;26.87;18.20;;;15.40;76.10;;;;;;4990531;28;20520;-46
2022/04/14 05:29:00;;;;;;;24.80;19.70;;;15.50;76.30;;;;;;4978725;28;20985;-47
2022/04/14 05:31:28;;;;;;;29.87;20.13;;;15.60;76.20;;;;;;4998699;28;21089;-47
2022/04/14 05:33:55;;;;;;;25.10;19.57;;;15.50;76.30;;;;;;4993827;28;20466;-47
2022/04/14 05:36:22;;;;;;;24.53;19.33;;;15.60;76.20;;;;;;4994092;28;20531;-47
2022/04/14 05:38:49;;;;;;;26.20;20.43;;;15.50;76.20;;;;;;4995526;28;20464;-47
2022/04/14 05:41:15;;;;;;;24.93;18.97;;;15.60;76.30;;;;;;4991907;28;20535;-47
2022/04/14 05:43:42;;;;;;;25.53;20.73;;;15.60;76.30;;;;;;4990937;28;20460;-47
2022/04/14 05:46:09;;;;;;;29.37;19.30;;;15.70;76.20;;;;;;4991345;28;20502;-47
2022/04/14 05:48:36;;;;;;;24.90;18.57;;;15.70;76.10;;;;;;4994408;28;20452;-47
2022/04/14 05:51:04;;;;;;;25.63;19.23;;;15.70;76.20;;;;;;4990221;28;20492;-47
2022/04/14 05:53:32;;;;;;;24.23;19.33;;;15.80;76.20;;;;;;4991192;28;20456;-47
2022/04/14 05:55:59;;;;;;;26.13;19.60;;;15.80;76.20;;;;;;4997195;28;20472;-47
2022/04/14 05:58:26;;;;;;;27.13;19.23;;;15.90;76.10;;;;;;4995573;28;20456;-47
2022/04/14 06:00:53;;;;;;;27.93;20.17;;;16.00;75.90;;;;;;4995151;28;20485;-47
2022/04/14 06:03:20;;;;;;;24.83;19.37;;;16.00;75.80;;;;;;4992270;28;20844;-47
2022/04/14 06:05:47;;;;;;;24.53;19.37;;;16.00;75.70;;;;;;4989719;28;20472;-47
2022/04/14 06:08:14;;;;;;;24.90;19.23;;;16.10;75.60;;;;;;4996684;28;20544;-47
2022/04/14 06:10:41;;;;;;;25.37;17.17;;;16.10;75.50;;;;;;4993129;28;20458;-47
2022/04/14 06:13:08;;;;;;;22.67;18.33;;;16.10;75.50;;;;;;4978137;28;20467;-48
2022/04/14 06:15:35;;;;;;;29.13;19.37;;;16.20;75.80;;;;;;4991918;28;20466;-48
2022/04/14 06:18:01;;;;;;;26.33;18.53;;;16.20;75.70;;;;;;4995723;28;20463;-48
2022/04/14 06:20:28;;;;;;;30.43;19.60;;;16.30;75.40;;;;;;4979708;28;20506;-48
2022/04/14 06:22:56;;;;;;;27.30;19.43;;;16.40;75.30;;;;;;4994166;28;20474;-48
2022/04/14 06:25:23;;;;;;;23.03;18.33;;;16.40;75.40;;;;;;4992106;28;20462;-48
2022/04/14 06:27:51;;;;;;;26.17;20.20;;;16.40;75.40;;;;;;4992022;28;20468;-48
2022/04/14 06:30:19;;;;;;;26.00;20.17;;;16.40;75.40;;;;;;4980683;28;20459;-48
2022/04/14 06:33:00;;;;;;;24.43;19.00;;;16.40;75.20;;;;;;4993375;28;20526;-48
2022/04/14 06:35:28;;;;;;;26.60;19.97;;;16.40;74.90;;;;;;4992899;28;20472;-48
2022/04/14 06:37:55;;;;;;;24.37;18.97;;;16.40;75.10;;;;;;4974310;28;20502;-48
2022/04/14 06:40:22;;;;;;;22.07;18.17;;;16.40;75.00;;;;;;4992157;28;20484;-48
2022/04/14 06:43:01;;;;;;;25.10;17.73;;;16.40;75.10;;;;;;4975163;28;20460;-48
2022/04/14 06:45:30;;;;;;;27.53;17.83;;;16.40;75.10;;;;;;4975599;28;20478;-47
2022/04/14 06:47:57;;;;;;;27.73;18.30;;;16.50;75.10;;;;;;4991765;28;20478;-47
2022/04/14 06:50:24;;;;;;;23.93;19.10;;;16.50;75.10;;;;;;4992348;28;20554;-48
2022/04/14 06:52:52;;;;;;;25.07;17.90;;;16.50;74.70;;;;;;4992240;28;20908;-49
2022/04/14 06:55:22;;;;;;;32.00;20.17;;;16.60;74.40;;;;;;4993584;28;20471;-49
2022/04/14 06:57:50;;;;;;;26.27;17.90;;;16.60;74.50;;;;;;4998166;28;20502;-48
2022/04/14 07:00:18;;;;;;;24.30;18.07;;;16.60;74.40;;;;;;4999408;28;20496;-48
2022/04/14 07:02:50;;;;;;;25.10;19.33;;;16.60;74.50;;;;;;4979080;28;20473;-48
2022/04/14 07:05:17;;;;;;;23.70;18.63;;;16.70;74.50;;;;;;4996884;28;20503;-48
2022/04/14 07:07:44;;;;;;;30.30;19.33;;;16.70;74.20;;;;;;4983736;28;20477;-48
2022/04/14 07:10:12;;;;;;;25.30;19.40;;;16.70;74.10;;;;;;4994454;28;20473;-48
2022/04/14 07:12:40;;;;;;;25.10;19.37;;;16.70;74.20;;;;;;4992290;28;20482;-48
2022/04/14 07:15:08;;;;;;;31.67;20.57;;;16.80;73.70;;;;;;4993687;28;20465;-48
2022/04/14 07:17:36;;;;;;;26.03;18.33;;;16.90;73.40;;;;;;4989570;28;20822;-48
2022/04/14 07:20:04;;;;;;;24.40;19.63;;;16.90;73.30;;;;;;4992135;28;20926;-48
2022/04/14 07:22:41;;;;;;;26.00;19.20;;;16.90;73.50;;;;;;4995621;28;20457;-48
2022/04/14 07:25:08;;;;;;;25.77;19.17;;;16.90;73.50;;;;;;4995300;28;20512;-48
2022/04/14 07:27:35;;;;;;;25.67;19.03;;;16.90;73.30;;;;;;4992531;28;20497;-47
2022/04/14 07:30:02;;;;;;;28.77;19.73;;;17.00;73.10;;;;;;4990385;28;20479;-47
2022/04/14 07:32:37;;;;;;;24.97;19.80;;;17.10;73.00;;;;;;4994253;28;20489;-47
2022/04/14 07:35:05;;;;;;;26.37;19.57;;;17.10;72.70;;;;;;4976672;28;20481;-48
2022/04/14 07:37:32;;;;;;;24.53;19.40;;;17.20;72.40;;;;;;4995056;28;20808;-47
2022/04/14 07:40:00;;;;;;;26.13;19.10;;;17.30;72.50;;;;;;4988355;28;20499;-47
2022/04/14 07:42:37;;;;;;;24.67;18.73;;;17.40;72.40;;;;;;4996673;28;20461;-47
2022/04/14 07:45:06;;;;;;;26.37;18.67;;;17.50;71.90;;;;;;4992894;28;20505;-47
2022/04/14 07:47:46;;;;;;;29.10;18.33;;;17.60;71.40;;;;;;4996737;28;20475;-47
2022/04/14 07:50:16;;;;;;;19.47;16.67;;;17.70;71.30;;;;;;4993791;28;20466;-47
2022/04/14 07:52:44;;;;;;;21.47;18.30;;;17.70;71.40;;;;;;4993857;28;20889;-48
2022/04/14 07:55:11;;;;;;;22.17;16.87;;;17.80;71.30;;;;;;4991078;28;20908;-47
2022/04/14 07:57:38;;;;;;;23.00;17.60;;;17.80;71.10;;;;;;4991355;28;20473;-47
2022/04/14 08:00:05;;;;;;;29.63;17.17;;;17.90;70.90;;;;;;4994604;28;20482;-47
2022/04/14 08:02:32;;;;;;;25.07;17.00;;;18.00;70.40;;;;;;4994211;28;20837;-47
2022/04/14 08:04:58;;;;;;;21.13;17.07;;;18.10;70.20;;;;;;4991802;28;20458;-48
2022/04/14 08:07:25;;;;;;;16.23;13.97;;;18.10;69.60;;;;;;4994076;28;20473;-48
2022/04/14 08:09:52;;;;;;;17.20;14.60;;;18.20;69.00;;;;;;4994447;28;20476;-47
2022/04/14 08:12:18;;;;;;;23.30;14.60;;;18.20;69.10;;;;;;4996438;28;20470;-47
2022/04/14 08:14:45;;;;;;;20.03;14.77;;;18.20;69.30;;;;;;4997427;28;20505;-47
2022/04/14 08:17:12;;;;;;;19.23;14.10;;;18.20;69.20;;;;;;4979741;28;20494;-48
2022/04/14 08:19:40;;;;;;;20.73;16.00;;;18.30;68.90;;;;;;4984095;28;20503;-48
2022/04/14 08:22:07;;;;;;;24.60;16.67;;;18.30;68.20;;;;;;4980594;28;20462;-48
2022/04/14 08:24:35;;;;;;;22.13;15.40;;;18.30;68.20;;;;;;4997767;28;20466;-48
2022/04/14 08:27:01;;;;;;;20.00;15.17;;;18.30;68.50;;;;;;4991982;28;20562;-48
2022/04/14 08:29:29;;;;;;;21.57;15.70;;;18.30;68.40;;;;;;4982605;28;20482;-48
2022/04/14 08:31:57;;;;;;;19.83;15.20;;;18.30;68.30;;;;;;4996854;28;20491;-48
2022/04/14 08:34:25;;;;;;;19.47;14.93;;;18.30;68.40;;;;;;4993672;28;20465;-48
2022/04/14 08:36:52;;;;;;;20.23;15.77;;;18.30;68.70;;;;;;5000416;28;21185;-48
2022/04/14 08:39:19;;;;;;;22.10;17.33;;;18.30;68.80;;;;;;4991533;28;20537;-48
2022/04/14 08:41:54;;;;;;;24.77;17.17;;;18.30;68.60;;;;;;4995461;28;20472;-48
2022/04/14 08:44:22;;;;;;;24.97;17.33;;;18.30;68.80;;;;;;4997411;28;20490;-48
2022/04/14 08:46:50;;;;;;;22.40;17.50;;;18.30;68.90;;;;;;4994867;28;20461;-48
2022/04/14 08:49:17;;;;;;;21.23;16.93;;;18.30;69.10;;;;;;4998777;28;20479;-48
2022/04/14 08:51:47;;;;;;;24.50;18.53;;;18.30;69.60;;;;;;4996547;28;20476;-48
2022/04/14 08:54:14;;;;;;;23.47;17.00;;;18.40;70.00;;;;;;4998209;28;20463;-48
2022/04/14 08:56:41;;;;;;;20.70;16.13;;;18.40;70.00;;;;;;4982011;28;20464;-48
2022/04/14 08:59:12;;;;;;;25.60;18.60;;;18.40;70.10;;;;;;4979805;28;20494;-48
2022/04/14 09:01:39;;;;;;;21.13;16.80;;;18.40;70.30;;;;;;4995047;28;20534;-48
2022/04/14 09:04:07;;;;;;;21.23;17.23;;;18.50;70.80;;;;;;4993833;28;20891;-48
2022/04/14 09:06:34;;;;;;;23.30;18.00;;;18.50;71.50;;;;;;4990710;28;20499;-48
2022/04/14 09:09:01;;;;;;;24.00;17.37;;;18.50;71.40;;;;;;4991363;28;20472;-48
2022/04/14 09:11:30;;;;;;;22.90;17.60;;;18.60;71.70;;;;;;4995946;28;21060;-48
2022/04/14 09:13:59;;;;;;;22.30;18.80;;;18.60;71.70;;;;;;4994184;28;20565;-48
2022/04/14 09:16:29;;;;;;;21.53;17.43;;;18.60;73.10;;;;;;4995620;28;20546;-48
2022/04/14 09:18:59;;;;;;;27.83;17.53;;;18.60;72.40;;;;;;4994025;28;20482;-48
2022/04/14 09:21:25;;;;;;;23.77;16.80;;;18.60;71.90;;;;;;4996416;28;21128;-48
2022/04/14 09:23:52;;;;;;;23.53;16.97;;;18.60;72.40;;;;;;4994035;28;20500;-48
2022/04/14 09:26:23;;;;;;;22.97;16.60;;;18.60;71.90;;;;;;4995847;28;20500;-48
2022/04/14 09:29:06;;;;;;;24.80;17.70;;;18.60;71.80;;;;;;4991457;28;20582;-47
2022/04/14 09:31:53;;;;;;;19.17;15.63;;;18.60;72.20;;;;;;4994425;28;20607;-48
2022/04/14 09:34:41;;;;;;;21.53;15.93;;;18.80;71.60;;;;;;4976146;28;20474;-48
2022/04/14 09:37:11;;;;;;;26.13;16.33;;;18.90;71.30;;;;;;4996569;28;20481;-48
2022/04/14 09:40:00;;;;;;;22.20;15.93;;;19.00;71.00;;;;;;4998205;28;20559;-48
2022/04/14 09:42:29;;;;;;;19.70;16.77;;;19.10;70.90;;;;;;4994669;28;20499;-48
2022/04/14 09:45:20;;;;;;;22.87;16.57;;;19.10;69.90;;;;;;4991704;28;20473;-48
2022/04/14 09:48:14;;;;;;;20.97;16.10;;;19.10;70.00;;;;;;4983824;28;20456;-48
2022/04/14 09:50:46;;;;;;;23.03;15.57;;;19.10;70.00;;;;;;4996585;28;20471;-48
2022/04/14 09:53:15;;;;;;;24.13;16.17;;;19.10;69.60;;;;;;4992340;28;20481;-48
2022/04/14 09:55:50;;;;;;;24.47;14.50;;;19.10;69.20;;;;;;4996084;28;20501;-48
2022/04/14 09:58:22;;;;;;;19.80;16.40;;;19.00;69.10;;;;;;4992205;28;20462;-48
2022/04/14 10:00:53;;;;;;;19.10;14.50;;;18.90;68.40;;;;;;4977787;28;20522;-48
2022/04/14 10:03:27;;;;;;;22.67;15.67;;;18.90;68.60;;;;;;4997086;28;20460;-48
2022/04/14 10:05:57;;;;;;;23.20;16.40;;;18.90;69.00;;;;;;4993313;28;20461;-48
2022/04/14 10:08:25;;;;;;;20.20;14.00;;;18.80;69.20;;;;;;4992993;28;20521;-48
2022/04/14 10:11:05;;;;;;;17.30;13.40;;;18.80;69.50;;;;;;4995096;28;20544;-48
2022/04/14 10:13:40;;;;;;;18.10;13.67;;;18.80;69.80;;;;;;4978770;28;20556;-48
2022/04/14 10:16:07;;;;;;;17.57;12.40;;;18.80;69.20;;;;;;4980588;28;20482;-48
2022/04/14 10:18:34;;;;;;;15.10;11.63;;;18.80;68.50;;;;;;4994511;28;20518;-48
2022/04/14 10:21:01;;;;;;;15.70;11.00;;;18.90;68.50;;;;;;4987786;28;20526;-48
2022/04/14 10:23:28;;;;;;;14.60;10.77;;;19.00;68.50;;;;;;4995464;28;20517;-48
2022/04/14 10:25:55;;;;;;;12.10;9.40;;;19.20;68.10;;;;;;4992472;28;20459;-48
2022/04/14 10:28:25;;;;;;;14.30;10.00;;;19.40;66.70;;;;;;4994275;28;20497;-48
2022/04/14 10:30:55;;;;;;;18.03;11.10;;;19.60;65.80;;;;;;4991511;28;20489;-48
2022/04/14 10:33:23;;;;;;;14.40;9.43;;;20.10;64.80;;;;;;4993894;28;20707;-48
2022/04/14 10:35:52;;;;;;;12.10;9.80;;;20.60;63.70;;;;;;4992562;28;20546;-48
2022/04/14 10:38:32;;;;;;;11.77;8.50;;;21.10;62.00;;;;;;4992414;28;20469;-48
2022/04/14 10:41:13;;;;;;;14.27;10.07;;;21.50;60.90;;;;;;4992383;28;20505;-48
2022/04/14 10:43:45;;;;;;;10.73;8.27;;;21.80;60.20;;;;;;4991353;28;20467;-49
2022/04/14 10:46:15;;;;;;;11.43;9.50;;;21.90;58.00;;;;;;4994888;28;20454;-48
2022/04/14 10:48:44;;;;;;;13.90;10.80;;;21.90;57.80;;;;;;4980522;28;20500;-48
2022/04/14 10:51:27;;;;;;;15.67;10.53;;;22.00;58.40;;;;;;4995977;28;20563;-48
2022/04/14 10:54:06;;;;;;;11.43;9.27;;;22.00;58.80;;;;;;4992298;28;20470;-48
2022/04/14 10:56:44;;;;;;;12.00;9.90;;;22.00;58.70;;;;;;4994061;28;20546;-48
2022/04/14 10:59:16;;;;;;;12.50;9.80;;;22.10;57.00;;;;;;4993772;28;20462;-48
2022/04/14 11:01:52;;;;;;;14.13;9.63;;;22.20;57.70;;;;;;4978820;28;20501;-48
2022/04/14 11:04:31;;;;;;;12.10;9.83;;;22.20;57.20;;;;;;4991218;28;20468;-48
2022/04/14 11:07:01;;;;;;;14.23;9.87;;;22.30;56.80;;;;;;4993627;28;20852;-47
2022/04/14 11:09:43;;;;;;;9.60;8.60;;;22.60;55.70;;;;;;4993318;28;20458;-48
2022/04/14 11:12:23;;;;;;;11.57;9.20;;;22.90;55.60;;;;;;4994363;28;20467;-48
2022/04/14 11:15:08;;;;;;;12.37;9.33;;;23.10;55.50;;;;;;4992017;28;20464;-48
2022/04/14 11:17:38;;;;;;;12.80;10.03;;;23.20;54.50;;;;;;4992168;28;20468;-49
2022/04/14 11:20:23;;;;;;;14.40;10.00;;;23.40;54.10;;;;;;4990102;28;20472;-49
2022/04/14 11:23:07;;;;;;;12.27;10.70;;;23.40;53.10;;;;;;4995425;28;20500;-49
2022/04/14 11:25:46;;;;;;;10.00;8.77;;;23.20;53.20;;;;;;4987794;28;20508;-49
2022/04/14 11:28:17;;;;;;;13.27;10.20;;;23.10;54.30;;;;;;4991913;28;20463;-49
2022/04/14 11:30:45;;;;;;;13.10;9.83;;;23.10;53.10;;;;;;4991036;28;20458;-48
2022/04/14 11:33:22;;;;;;;12.00;9.40;;;23.20;53.00;;;;;;4994871;28;20472;-48
2022/04/14 11:35:49;;;;;;;10.40;9.20;;;23.20;53.60;;;;;;4990458;28;20473;-48
2022/04/14 11:38:53;;;;;;;13.40;9.20;;;23.30;53.50;;;;;;4991810;28;20469;-49
2022/04/14 11:41:34;;;;;;;14.43;8.20;;;23.40;54.50;;;;;;4991327;28;20554;-49
2022/04/14 11:44:03;;;;;;;9.93;8.93;;;23.50;53.90;;;;;;4997937;28;20489;-49
2022/04/14 11:46:31;;;;;;;10.57;8.43;;;23.60;53.50;;;;;;4995113;28;20973;-49
2022/04/14 11:49:00;;;;;;;10.00;8.67;;;23.50;53.10;;;;;;4995936;28;20493;-49
2022/04/14 11:51:27;;;;;;;9.97;8.20;;;23.40;52.10;;;;;;4983630;28;20594;-49
2022/04/14 11:53:55;;;;;;;9.63;7.20;;;23.20;52.00;;;;;;4997864;28;20537;-48
2022/04/14 11:56:42;;;;;;;10.90;8.10;;;23.00;52.40;;;;;;4997544;28;20465;-48
2022/04/14 11:59:09;;;;;;;9.20;7.83;;;22.80;53.20;;;;;;4992816;28;20467;-49
2022/04/14 12:01:49;;;;;;;14.00;8.57;;;22.70;53.80;;;;;;4992125;28;20529;-49
2022/04/14 12:04:16;;;;;;;10.93;7.80;;;22.60;54.40;;;;;;4994647;28;20467;-49
2022/04/14 12:06:56;;;;;;;8.37;7.40;;;22.50;54.50;;;;;;4993909;28;20541;-48
2022/04/14 12:09:24;;;;;;;9.60;8.10;;;22.50;54.50;;;;;;4994411;28;20492;-49
2022/04/14 12:11:52;;;;;;;7.93;6.83;;;22.50;55.40;;;;;;4979872;28;20464;-49
2022/04/14 12:14:21;;;;;;;11.07;8.80;;;22.50;54.90;;;;;;4999031;28;20465;-49
2022/04/14 12:16:52;;;;;;;8.43;7.57;;;22.50;54.10;;;;;;4993853;28;20492;-48
2022/04/14 12:19:20;;;;;;;9.87;6.73;;;22.40;53.90;;;;;;4979893;28;20508;-48
2022/04/14 12:22:07;;;;;;;12.87;8.40;;;22.40;53.90;;;;;;4992645;28;20577;-49
2022/04/14 12:24:34;;;;;;;8.63;7.50;;;22.40;53.80;;;;;;4997458;28;20468;-49
2022/04/14 12:27:01;;;;;;;11.30;7.97;;;22.40;53.40;;;;;;4997758;28;20640;-49
2022/04/14 12:29:28;;;;;;;8.80;5.20;;;22.40;53.40;;;;;;4981739;28;20495;-49
2022/04/14 12:32:13;;;;;;;4.40;4.00;;;22.40;54.00;;;;;;4993850;28;20499;-48
2022/04/14 12:34:44;;;;;;;7.00;3.63;;;22.50;54.10;;;;;;4994471;28;21019;-48
2022/04/14 12:37:13;;;;;;;6.10;4.00;;;22.50;52.70;;;;;;4993294;28;20958;-49
2022/04/14 12:39:58;;;;;;;6.57;3.70;;;22.50;52.70;;;;;;4991291;28;20471;-49
2022/04/14 12:42:31;;;;;;;4.47;3.30;;;22.40;52.50;;;;;;4994732;28;20579;-49